Hauptseite
METAR-TAF:

METAR-TAF

Flughäfen :

Flughafen Abu Simbel

Abu Simbel, Ägypten

Breite: 22-22-33N, Länge: 31-36-42E, Höhe: 188 m

Beobachtung

Neuester Wetterbericht von vor 1 Stunde und 28 Minuten, um 12:00 UTC
Wind 10 kt aus Nordost
Temperatur 37°C
Luftfeuchtigkeit 15%
Luftdruck 1008 hPa
Sichtweite 10 km oder mehr
keine Wolken unter 1500 m und keine Kumulonimbus oder Gewitterwolken

METAR: HEBL 231200Z 04010KT CAVOK 37/06 Q1008 NOSIG

Zeit: 15:28 (13:28 UTC)

Prognose

Neuester Wetterbericht von vor 2 Stunden und 28 Minuten, um 11:00 UTC
Gültige Prognose vom 23 um 12 UTC bis 24 um 18 UTC
Wind 15 kt aus Nord/Nordost
Sichtweite: 8000 m
Zeitweise
vom 23 um 12 UTC bis 23 um 16 UTC
Sichtweite: 4000 m
Sand,

TAF: HEBL 231100Z 2312/2418 02015KT 8000 NSC TEMPO 2312/2316 4000 SA

Wetterbeobachtungen und Prognosen von mehr als 4000 Flughäfen (METAR und TAF Bericht).

Die verfügbaren Stationen werden durch gelbe und rote Markierungen auf der Karte dargestellt.

Führen Sie die Maus auf sie, um den Namen der Station zu sehen.

Darauf klicken, um die Beobachtung von Wetterbeobachtungen und Prognosen zu sehen.

Um die Karte zu ändern : klicken Sie auf den grünen Tasten mit einem schwarzen Kreuz Zum Vergrößern, auf den grünen Button mit einem Gedankenstrich zu verkleinern, oder auf die grünen Pfeile für benachbarte Karten.


METAR-TAF: